Latest Weather Observations for Point Cook

IDV60901

Issued at 6:41 pm EST Monday 4 May 2026 (issued every 10 minutes, with the page automatically refreshed every 10 minutes)

About weather observations | Map of Melbourne area stations | Latest observations for Melbourne area | Other Formats
Station Details ID: 087185 Name: POINT COOK RAAF Lat: -37.93 Lon: 144.76 Height: 3.13 m
Data from the previous 72 hours. | See also: Recent months for locations in Victoria
Date/Time
EST
Temp
°C
App
Temp
°C
Dew
Point
°C
Rel
Hum
%
Delta-T
°C
Wind Press
QNH
hPa
Press
MSL
hPa
Rain since
9am
mm
Dir  Spd
km/h
Gust
km/h
Spd
kts
Gust
kts
04/06:30pm 15.4 11.5 9.5 68 3.1 N 20 32 11 17 1009.9 1009.9 0.0
04/06:00pm 15.6 11.1 9.9 69 3.0 N 24 35 13 19 1009.5 1009.5 0.0
04/05:30pm 15.8 11.9 10.8 72 2.7 N 22 30 12 16 1009.2 1009.2 0.0
04/05:00pm 15.8 11.1 10.6 71 2.8 N 26 37 14 20 1008.9 1008.9 0.0
04/04:30pm 17.1 9.9 9.3 60 4.1 N 37 61 20 33 1008.5 1008.5 0.0
04/04:07pm 18.6 12.6 8.8 53 5.1 N 30 52 16 28 1008.2 1008.2 0.0
04/04:00pm 18.1 11.6 8.9 55 4.8 N 33 46 18 25 1008.3 1008.3 0.0
04/03:30pm 18.1 12.2 8.9 55 4.8 N 30 43 16 23 1008.4 1008.4 0.0
04/03:04pm 18.2 12.2 8.5 53 5.0 N 30 57 16 31 1008.3 1008.3 0.0
04/03:00pm 18.1 12.0 8.4 53 5.0 N 30 44 16 24 1008.4 1008.4 0.0
04/02:30pm 18.6 11.9 8.3 51 5.3 N 33 54 18 29 1008.0 1008.0 0.0
04/02:29pm 18.8 12.2 8.5 51 5.3 N 33 54 18 29 1008.1 1008.1 0.0
04/02:00pm 18.4 10.9 7.8 50 5.4 N 37 50 20 27 1008.1 1008.1 0.0
04/01:32pm 19.1 11.2 7.8 48 5.8 N 39 57 21 31 1008.0 1008.0 0.0
04/01:30pm 18.8 10.4 7.3 47 5.8 N 41 57 22 31 1007.9 1007.9 0.0
04/01:00pm 19.7 12.5 7.8 46 6.1 N 35 50 19 27 1008.5 1008.5 0.0
04/12:49pm 18.6 11.9 8.0 50 5.4 N 33 52 18 28 1008.7 1008.7 0.0
04/12:30pm 18.2 10.5 7.3 49 5.5 N 37 54 20 29 1009.1 1009.1 0.0
04/12:27pm 18.5 11.3 7.6 49 5.5 N 35 54 19 29 1009.2 1009.2 0.0
04/12:00pm 18.4 10.5 7.8 50 5.4 N 39 54 21 29 1009.4 1009.4 0.0
04/11:30am 17.7 9.6 7.2 50 5.3 N 39 52 21 28 1009.9 1009.9 0.0
04/11:00am 17.3 9.7 7.4 52 5.0 N 37 52 20 28 1009.9 1009.9 0.0
04/10:30am 17.4 11.3 8.3 55 4.7 N 30 44 16 24 1010.2 1010.2 0.0
04/10:00am 16.6 10.6 8.8 60 4.0 N 30 43 16 23 1010.2 1010.2 0.0
04/09:30am 15.9 10.7 8.9 63 3.6 N 26 33 14 18 1010.6 1010.6 0.0
04/09:00am 14.9 8.9 8.8 67 3.1 N 30 39 16 21 1010.4 1010.4 3.2
04/08:30am 14.6 10.5 8.5 67 3.1 N 20 32 11 17 1010.7 1010.7 3.2
04/08:00am 13.5 9.0 8.4 71 2.5 N 22 30 12 16 1010.7 1010.7 3.2
04/07:30am 12.9 9.0 8.6 75 2.1 NNE 19 26 10 14 1010.7 1010.7 3.2
04/07:00am 12.8 9.3 8.9 77 2.0 N 17 24 9 13 1010.4 1010.4 3.2
04/06:30am 12.7 8.6 8.8 77 2.0 N 20 28 11 15 1010.3 1010.3 3.2
04/06:00am 12.7 8.6 8.6 76 2.0 N 20 28 11 15 1010.3 1010.3 3.2
04/05:30am 12.7 8.6 8.8 77 2.0 N 20 28 11 15 1010.4 1010.4 3.2
04/05:00am 12.8 9.7 8.9 77 2.0 NNE 15 22 8 12 1010.6 1010.6 3.2
04/04:30am 12.5 8.7 9.1 80 1.7 NNE 19 26 10 14 1010.9 1010.9 3.2
04/04:00am 12.9 9.0 9.5 80 1.7 NNE 20 28 11 15 1010.8 1010.8 3.2
04/03:30am 13.1 9.3 9.7 80 1.7 NNE 20 28 11 15 1011.1 1011.1 3.2
04/03:00am 13.0 9.7 9.6 80 1.7 NNE 17 24 9 13 1011.4 1011.4 3.2
04/02:30am 13.0 9.4 9.8 81 1.6 N 19 24 10 13 1011.5 1011.5 3.2
04/02:00am 13.1 9.9 9.9 81 1.6 NNE 17 20 9 11 1011.5 1011.5 3.2
04/01:30am 13.2 9.7 10.2 82 1.6 NNE 19 24 10 13 1011.5 1011.5 3.2
04/01:00am 13.4 9.7 10.2 81 1.7 N 20 26 11 14 1011.6 1011.6 3.2
04/12:30am 13.4 10.5 9.8 79 1.8 N 15 22 8 12 1011.6 1011.6 3.2
04/12:00am 13.9 9.8 10.1 78 2.0 N 22 28 12 15 1011.5 1011.5 3.2
 
Date/Time
EST
Temp
°C
App
Temp
°C
Dew
Point
°C
Rel
Hum
%
Delta-T
°C
Wind Press
QNH
hPa
Press
MSL
hPa
Rain since
9am
mm
Dir  Spd
km/h
Gust
km/h
Spd
kts
Gust
kts
03/11:30pm 14.1 10.4 10.3 78 2.0 NNE 20 26 11 14 1011.9 1011.9 3.2
03/11:00pm 14.2 10.8 10.4 78 2.0 N 19 24 10 13 1011.9 1011.9 3.2
03/10:30pm 14.6 11.0 10.4 76 2.2 N 20 24 11 13 1012.1 1012.1 3.2
03/10:00pm 14.7 11.5 10.1 74 2.4 NNE 17 20 9 11 1012.4 1012.4 3.2
03/09:30pm 14.7 12.3 10.1 74 2.4 NNE 13 22 7 12 1012.6 1012.6 3.2
03/09:00pm 14.8 12.8 10.0 73 2.5 NNE 11 15 6 8 1012.5 1012.5 3.2
03/08:30pm 15.1 12.6 9.7 70 2.8 NNE 13 19 7 10 1012.5 1012.5 3.2
03/08:00pm 15.1 12.5 9.5 69 2.9 NE 13 19 7 10 1012.2 1012.2 3.2
03/07:30pm 15.7 12.4 9.6 67 3.2 N 17 20 9 11 1012.0 1012.0 3.2
03/07:00pm 14.8 12.9 9.0 68 3.0 NNE 9 11 5 6 1011.4 1011.4 3.2
03/06:30pm 15.2 12.5 8.9 66 3.2 NNE 13 15 7 8 1010.9 1010.9 3.2
03/06:00pm 15.3 12.8 8.3 63 3.5 N 11 17 6 9 1010.7 1010.7 3.2
03/05:30pm 16.2 13.2 7.9 58 4.2 NNW 13 19 7 10 1010.7 1010.7 3.2
03/05:00pm 17.8 15.2 7.8 52 5.1 NNW 11 17 6 9 1010.4 1010.4 3.2
03/04:30pm 18.6 14.5 8.0 50 5.4 NW 19 30 10 16 1010.1 1010.1 3.2
03/04:00pm 18.9 14.0 6.7 45 6.1 WNW 22 33 12 18 1009.9 1009.9 3.2
03/03:30pm 19.8 16.8 9.1 50 5.6 NNW 15 20 8 11 1009.9 1009.9 3.2
03/03:00pm 19.2 16.9 11.7 62 4.1 NNW 15 19 8 10 1009.9 1009.9 3.2
03/02:30pm 18.9 17.6 12.6 67 3.5 NNW 11 17 6 9 1009.8 1009.8 3.2
03/02:00pm 18.4 16.4 12.6 69 3.2 NW 15 20 8 11 1009.9 1009.9 3.2
03/01:30pm 18.2 16.1 12.4 69 3.2 NW 15 22 8 12 1010.0 1010.0 3.2
03/01:00pm 17.8 15.5 13.1 74 2.6 NW 17 24 9 13 1010.2 1010.2 3.2
03/12:31pm 19.4 14.4 15.1 76 2.5 N 35 54 19 29 1009.8 1009.8 3.2
03/12:30pm 19.4 14.0 15.1 76 2.5 N 37 54 20 29 1009.9 1009.9 3.2
03/12:12pm 19.6 15.7 15.5 77 2.4 N 30 48 16 26 1009.7 1009.7 3.2
03/12:00pm 19.3 16.5 15.4 78 2.3 N 24 39 13 21 1010.0 1010.0 3.2
03/11:30am 18.5 15.3 15.4 82 1.8 NNE 26 35 14 19 1009.8 1009.8 3.2
03/11:00am 18.3 15.1 15.4 83 1.7 NNE 26 43 14 23 1010.2 1010.2 3.2
03/10:30am 18.0 14.1 15.6 86 1.4 NNE 30 43 16 23 1009.7 1009.7 3.0
03/10:00am 17.9 13.9 15.3 85 1.5 NNE 30 43 16 23 1009.5 1009.5 2.2
03/09:30am 18.8 15.8 14.7 77 2.4 N 24 39 13 21 1011.1 1011.1 0.0
03/09:04am 20.1 15.2 13.8 67 3.6 NNE 32 52 17 28 1010.5 1010.5 0.0
03/09:00am 20.0 15.1 13.7 67 3.6 NNE 32 48 17 26 1010.8 1010.8 0.0
03/08:30am 19.6 15.9 14.0 70 3.2 NNE 26 39 14 21 1010.3 1010.3 0.0
03/08:00am 18.8 15.5 13.9 73 2.8 NNE 24 39 13 21 1010.3 1010.3 0.0
03/07:30am 18.6 14.5 13.7 73 2.8 NNE 28 39 15 21 1011.1 1011.1 0.0
03/07:00am 18.7 13.8 13.6 72 2.9 N 32 50 17 27 1010.9 1010.9 0.0
03/06:56am 18.7 14.1 13.6 72 2.9 N 30 50 16 27 1010.9 1010.9 0.0
03/06:30am 18.9 13.2 13.1 69 3.3 NNE 35 52 19 28 1010.7 1010.7 0.0
03/06:06am 19.0 13.8 12.7 67 3.5 N 32 52 17 28 1011.4 1011.4 0.0
03/06:00am 19.1 14.7 12.8 67 3.5 N 28 39 15 21 1011.6 1011.6 0.0
03/05:30am 18.8 15.9 12.8 68 3.4 N 20 30 11 16 1011.3 1011.3 0.0
03/05:00am 18.9 14.3 12.4 66 3.6 N 28 43 15 23 1011.1 1011.1 0.0
03/04:30am 19.7 14.9 11.7 60 4.4 NNE 28 39 15 21 1010.6 1010.6 0.0
03/04:00am 20.2 14.9 11.1 56 5.0 NNE 30 46 16 25 1011.0 1011.0 0.0
03/03:53am 20.1 15.2 11.3 57 4.8 NNE 28 46 15 25 1011.1 1011.1 0.0
03/03:30am 20.2 16.0 11.1 56 5.0 NNE 24 37 13 20 1011.5 1011.5 0.0
03/03:00am 20.2 16.3 10.9 55 5.1 N 22 32 12 17 1012.0 1012.0 0.0
03/02:30am 20.4 17.0 11.1 55 5.1 NNE 20 32 11 17 1011.9 1011.9 0.0
03/02:00am 20.1 16.9 11.1 56 4.9 N 19 26 10 14 1012.3 1012.3 0.0
03/01:30am 20.1 16.6 10.8 55 5.1 N 20 26 11 14 1012.6 1012.6 0.0
03/01:00am 19.9 17.4 10.9 56 4.9 N 15 20 8 11 1012.7 1012.7 0.0
03/12:30am 20.0 17.5 11.2 57 4.8 N 15 20 8 11 1013.1 1013.1 0.0
03/12:00am 20.6 17.2 10.4 52 5.5 N 19 30 10 16 1013.1 1013.1 0.0
 
Date/Time
EST
Temp
°C
App
Temp
°C
Dew
Point
°C
Rel
Hum
%
Delta-T
°C
Wind Press
QNH
hPa
Press
MSL
hPa
Rain since
9am
mm
Dir  Spd
km/h
Gust
km/h
Spd
kts
Gust
kts
02/11:30pm 20.5 18.2 10.3 52 5.5 NNW 13 17 7 9 1013.4 1013.4 0.0
02/11:00pm 20.7 18.0 10.2 51 5.7 NNW 15 20 8 11 1013.8 1013.8 0.0
02/10:30pm 21.2 17.4 9.8 48 6.1 N 20 32 11 17 1013.9 1013.9 0.0
02/10:00pm 20.7 18.5 7.7 43 6.7 N 9 15 5 8 1014.0 1014.0 0.0
02/09:30pm 20.6 18.1 8.3 45 6.4 NNE 11 15 6 8 1014.1 1014.1 0.0
02/09:00pm 20.1 19.4 8.4 47 6.1 NNE 2 4 1 2 1014.3 1014.3 0.0
02/08:30pm 20.7 19.3 9.0 47 6.2 NNE 6 9 3 5 1014.0 1014.0 0.0
02/08:00pm 21.3 19.3 8.6 44 6.7 N 9 11 5 6 1014.1 1014.1 0.0
02/07:30pm 22.0 19.2 8.5 42 7.1 N 13 17 7 9 1014.2 1014.2 0.0
02/07:00pm 23.0 19.8 8.3 39 7.8 N 15 20 8 11 1014.2 1014.2 0.0
02/06:30pm 23.3 19.1 8.2 38 8.0 N 20 26 11 14 1014.0 1014.0 0.0
02/06:00pm 23.7 19.5 8.2 37 8.2 NNE 20 32 11 17 1013.9 1013.9 0.0
02/05:30pm 23.9 18.5 7.9 36 8.4 NNE 26 41 14 22 1013.8 1013.8 0.0
02/05:00pm 24.1 18.7 8.1 36 8.5 NNE 26 35 14 19 1013.7 1013.7 0.0
02/04:38pm 24.1 18.3 8.1 36 8.5 NNE 28 46 15 25 1013.7 1013.7 0.0
02/04:30pm 24.3 17.8 8.3 36 8.5 NNE 32 46 17 25 1013.5 1013.5 0.0
02/04:00pm 25.0 18.6 8.5 35 8.9 NNE 32 46 17 25 1013.4 1013.4 0.0
02/03:30pm 24.1 18.1 8.5 37 8.3 N 30 43 16 23 1013.8 1013.8 0.0
02/03:00pm 24.3 18.7 8.7 37 8.4 NNE 28 39 15 21 1013.9 1013.9 0.0
02/02:30pm 24.0 17.9 8.4 37 8.3 NNE 30 41 16 22 1014.1 1014.1 0.0
02/02:00pm 23.5 17.2 8.8 39 7.9 NNE 32 43 17 23 1014.5 1014.5 0.0
02/01:30pm 22.9 17.7 9.0 41 7.4 NNE 26 39 14 21 1015.3 1015.3 0.0
02/01:00pm 23.0 17.5 9.0 41 7.5 NNE 28 37 15 20 1015.7 1015.7 0.0
02/12:30pm 22.2 17.9 9.4 44 6.9 NNE 22 32 12 17 1016.4 1016.4 0.0
02/12:00pm 21.5 16.4 9.1 45 6.6 NNE 26 39 14 21 1017.0 1017.0 0.0
02/11:30am 21.3 16.9 8.9 45 6.6 NNE 22 37 12 20 1017.5 1017.5 0.0
02/11:00am 20.9 17.1 9.2 47 6.2 N 19 26 10 14 1018.1 1018.1 0.0
02/10:30am 20.7 16.6 8.7 46 6.3 N 20 28 11 15 1018.3 1018.3 0.0
02/10:00am 20.8 16.8 9.1 47 6.2 NNE 20 28 11 15 1018.4 1018.4 0.0
02/09:30am 20.2 16.1 8.8 48 6.0 N 20 32 11 17 1018.8 1018.8 0.0
02/09:00am 19.7 15.3 9.0 50 5.6 N 22 30 12 16 1018.9 1018.9 0.0
02/08:30am 19.5 15.1 8.8 50 5.6 NNE 22 30 12 16 1018.8 1018.8 0.0
02/08:00am 19.4 15.5 8.7 50 5.6 NNE 19 28 10 15 1018.8 1018.8 0.0
02/07:30am 19.2 15.6 8.5 50 5.6 NNE 17 22 9 12 1018.6 1018.6 0.0
02/07:00am 19.2 15.3 8.5 50 5.5 NNE 19 28 10 15 1018.2 1018.2 0.0
02/06:30am 19.5 15.0 8.5 49 5.7 NNE 22 33 12 18 1018.1 1018.1 0.0
02/06:00am 19.6 14.3 8.3 48 5.8 NNE 26 37 14 20 1017.9 1017.9 0.0
02/05:30am 19.3 15.8 8.6 50 5.6 NNE 17 26 9 14 1018.2 1018.2 0.0
02/05:00am 19.1 15.0 8.7 51 5.4 NNE 20 30 11 16 1018.2 1018.2 0.0
02/04:30am 18.5 15.9 9.3 55 4.8 NNE 13 20 7 11 1018.4 1018.4 0.0
02/04:00am 16.5 15.0 9.0 61 3.9 NE 7 13 4 7 1018.5 1018.5 0.0
02/03:30am 17.6 14.2 9.2 58 4.4 NE 17 20 9 11 1018.6 1018.6 0.0
02/03:00am 16.1 14.3 9.3 64 3.5 NNE 9 9 5 5 1018.8 1018.8 0.0
02/02:30am 15.7 14.5 9.4 66 3.3 N 6 7 3 4 1019.0 1019.0 0.0
02/02:00am 15.9 13.3 9.3 65 3.4 N 13 15 7 8 1019.4 1019.4 0.0
02/01:30am 15.5 13.3 9.4 67 3.1 N 11 13 6 7 1019.5 1019.5 0.0
02/01:00am 16.7 14.6 9.6 63 3.7 NNE 11 15 6 8 1019.8 1019.8 0.0
02/12:30am 17.1 15.4 9.8 62 3.8 NNE 9 11 5 6 1020.0 1020.0 0.0
02/12:00am 17.1 15.8 10.0 63 3.7 NNE 7 11 4 6 1020.3 1020.3 0.0
 
Date/Time
EST
Temp
°C
App
Temp
°C
Dew
Point
°C
Rel
Hum
%
Delta-T
°C
Wind Press
QNH
hPa
Press
MSL
hPa
Rain since
9am
mm
Dir  Spd
km/h
Gust
km/h
Spd
kts
Gust
kts
01/11:30pm 18.3 16.2 9.9 58 4.5 NNE 11 15 6 8 1020.7 1020.7 0.0
01/11:00pm 18.1 16.4 10.0 59 4.3 NE 9 11 5 6 1020.9 1020.9 0.0
01/10:30pm 18.1 16.8 10.0 59 4.3 NNE 7 11 4 6 1021.2 1021.2 0.0
01/10:00pm 18.8 17.5 9.8 56 4.8 NNE 7 11 4 6 1021.3 1021.3 0.0
01/09:30pm 18.9 17.5 9.7 55 4.9 NNE 7 9 4 5 1021.4 1021.4 0.0
01/09:00pm 19.9 17.8 9.8 52 5.4 NNE 11 13 6 7 1021.3 1021.3 0.0
01/08:30pm 20.3 18.1 9.5 50 5.7 NNE 11 13 6 7 1021.3 1021.3 0.0
01/08:00pm 20.9 18.7 9.5 48 6.1 NE 11 15 6 8 1021.2 1021.2 0.0
01/07:30pm 21.7 19.1 9.3 45 6.6 NNE 13 15 7 8 1021.1 1021.1 0.0
01/07:00pm 22.3 19.6 8.8 42 7.2 NE 13 17 7 9 1021.1 1021.1 0.0

Latest Capital City Observations: Canberra | Sydney | Melbourne | Brisbane | Adelaide | Perth | Hobart | Darwin

Other formats

Comma delimited format used in spreadsheet applications
http://www.bom.gov.au/fwo/IDV60901/IDV60901.95941.axf

JavaScript Object Notation format (JSON) in row-major order
http://www.bom.gov.au/fwo/IDV60901/IDV60901.95941.json

Data quality

Most of these data are generated automatically and are frequently updated. Quality checks on data are not normally performed. It is possible for incorrect values to appear. Refer to information at About Latest Weather Observations and please check the disclaimer before using these data.